createdAt,value
2023-02-16T00:01:47.037Z,3.62
2023-02-16T00:04:23.358Z,3.61
2023-02-16T00:06:51.653Z,3.64
2023-02-16T00:09:19.110Z,3.68
2023-02-16T00:12:05.719Z,3.65
2023-02-16T00:14:35.712Z,3.71
2023-02-16T00:17:03.450Z,3.77
2023-02-16T00:19:36.012Z,3.79
2023-02-16T00:22:05.518Z,3.74
2023-02-16T00:24:32.992Z,3.68
2023-02-16T00:27:01.251Z,3.69
2023-02-16T00:29:37.660Z,3.68
2023-02-16T00:32:12.493Z,3.66
2023-02-16T00:34:43.386Z,3.64
2023-02-16T00:37:13.507Z,3.65
2023-02-16T00:39:42.423Z,3.62
2023-02-16T00:42:19.875Z,3.61
2023-02-16T00:44:53.575Z,3.62
2023-02-16T00:47:37.462Z,3.58
2023-02-16T00:50:15.501Z,3.58
2023-02-16T00:52:47.006Z,3.58
2023-02-16T00:55:17.481Z,3.61
2023-02-16T00:57:59.892Z,3.63
2023-02-16T01:00:34.181Z,3.63
2023-02-16T01:03:06.370Z,3.67
2023-02-16T01:05:33.901Z,3.66
2023-02-16T01:08:20.758Z,3.58
2023-02-16T01:11:07.460Z,3.52
2023-02-16T01:13:55.579Z,3.52
2023-02-16T01:16:27.706Z,3.48
2023-02-16T01:18:54.863Z,3.51
2023-02-16T01:21:22.137Z,3.47
2023-02-16T01:23:49.412Z,3.43
2023-02-16T01:26:19.130Z,3.42
2023-02-16T01:28:47.736Z,3.44
2023-02-16T01:31:16.860Z,3.45
2023-02-16T01:33:44.650Z,3.46
2023-02-16T01:36:39.879Z,3.44
2023-02-16T01:39:07.646Z,3.43
2023-02-16T01:41:55.099Z,3.42
2023-02-16T01:44:29.952Z,3.47
2023-02-16T01:47:05.838Z,3.51
2023-02-16T01:49:33.012Z,3.53
2023-02-16T01:52:21.896Z,3.55
2023-02-16T01:54:52.167Z,3.56
2023-02-16T01:57:33.964Z,3.53
2023-02-16T02:00:09.292Z,3.49
2023-02-16T02:02:52.388Z,3.45
2023-02-16T02:05:36.741Z,3.45
2023-02-16T02:08:36.117Z,3.45
2023-02-16T02:11:22.421Z,3.48
2023-02-16T02:14:05.620Z,3.51
2023-02-16T02:16:33.076Z,3.51
2023-02-16T02:19:00.870Z,3.50
2023-02-16T02:22:05.783Z,3.50
2023-02-16T02:24:53.126Z,3.42
2023-02-16T02:27:25.042Z,3.41
2023-02-16T02:30:30.907Z,3.39
2023-02-16T02:33:11.492Z,3.35
2023-02-16T02:36:06.072Z,3.27
2023-02-16T02:38:57.834Z,3.22
2023-02-16T02:41:54.424Z,3.23
2023-02-16T02:44:22.908Z,3.22
2023-02-16T02:46:51.280Z,3.16
2023-02-16T02:49:19.179Z,3.13
2023-02-16T02:51:47.572Z,3.10
2023-02-16T02:54:38.776Z,3.13
2023-02-16T02:57:29.988Z,3.15
2023-02-16T03:00:27.502Z,3.11
2023-02-16T03:03:00.367Z,3.00
2023-02-16T03:05:31.608Z,2.94
2023-02-16T03:08:06.568Z,2.94
2023-02-16T03:10:56.145Z,2.96
2023-02-16T03:13:33.715Z,3.00
2023-02-16T03:16:06.214Z,3.05
2023-02-16T03:18:54.515Z,3.08
2023-02-16T03:21:40.937Z,3.11
2023-02-16T03:24:31.564Z,3.12
2023-02-16T03:27:17.765Z,3.13
2023-02-16T03:29:48.705Z,3.12
2023-02-16T03:32:17.118Z,3.12
2023-02-16T03:34:44.431Z,3.12
2023-02-16T03:37:12.709Z,3.09
2023-02-16T03:39:58.933Z,3.07
2023-02-16T03:42:26.162Z,2.99
2023-02-16T03:44:53.567Z,3.00
2023-02-16T03:47:20.723Z,2.96
2023-02-16T03:49:47.943Z,2.92
2023-02-16T03:52:15.038Z,2.86
2023-02-16T03:54:42.098Z,2.84
2023-02-16T03:57:09.220Z,2.80
2023-02-16T03:59:36.370Z,2.78
2023-02-16T04:02:03.534Z,2.75
2023-02-16T04:04:30.832Z,2.74
2023-02-16T04:06:57.950Z,2.74
2023-02-16T04:09:25.075Z,2.66
2023-02-16T04:12:11.200Z,2.59
2023-02-16T04:14:38.114Z,2.53
2023-02-16T04:17:05.317Z,2.45
2023-02-16T04:19:32.493Z,2.43
2023-02-16T04:21:59.567Z,2.42
2023-02-16T04:24:26.669Z,2.43
2023-02-16T04:26:53.790Z,2.46
2023-02-16T04:29:20.969Z,2.47
2023-02-16T04:31:48.234Z,2.51
2023-02-16T04:34:15.806Z,2.52
2023-02-16T04:36:42.882Z,2.48
2023-02-16T04:39:09.932Z,2.46
2023-02-16T04:41:37.102Z,2.44
2023-02-16T04:44:04.380Z,2.38
2023-02-16T04:46:31.915Z,2.35
2023-02-16T04:48:59.064Z,2.36
2023-02-16T04:51:26.242Z,2.35
2023-02-16T04:53:53.313Z,2.31
2023-02-16T04:56:20.463Z,2.23
2023-02-16T04:58:47.640Z,2.20
2023-02-16T05:01:23.128Z,2.22
2023-02-16T05:03:50.316Z,2.24
2023-02-16T05:06:18.213Z,2.24
2023-02-16T05:08:46.053Z,2.24
2023-02-16T05:11:32.117Z,2.23
2023-02-16T05:14:18.368Z,2.24
2023-02-16T05:16:46.113Z,2.17
2023-02-16T05:19:13.750Z,2.08
2023-02-16T05:21:40.894Z,2.07
2023-02-16T05:24:12.127Z,2.04
2023-02-16T05:26:40.352Z,2.03
2023-02-16T05:29:07.628Z,2.04
2023-02-16T05:31:34.826Z,2.05
2023-02-16T05:34:02.156Z,2.05
2023-02-16T05:36:29.555Z,2.01
2023-02-16T05:38:57.174Z,2.02
2023-02-16T05:41:24.381Z,2.01
2023-02-16T05:43:53.809Z,1.97
2023-02-16T05:46:22.766Z,1.98
2023-02-16T05:48:50.331Z,2.01
2023-02-16T05:51:18.404Z,2.00
2023-02-16T05:53:46.019Z,1.97
2023-02-16T05:56:13.808Z,1.93
2023-02-16T05:58:40.959Z,1.92
2023-02-16T06:01:08.032Z,1.94
2023-02-16T06:03:36.049Z,1.99
2023-02-16T06:06:05.182Z,1.98
2023-02-16T06:08:33.171Z,1.95
2023-02-16T06:11:00.319Z,1.87
2023-02-16T06:13:27.499Z,1.78
2023-02-16T06:15:56.697Z,1.74
2023-02-16T06:18:25.024Z,1.77
2023-02-16T06:20:52.775Z,1.81
2023-02-16T06:23:19.863Z,1.84
2023-02-16T06:25:51.444Z,1.85
2023-02-16T06:28:18.624Z,1.79
2023-02-16T06:30:45.742Z,1.80
2023-02-16T06:33:12.842Z,1.80
2023-02-16T06:35:39.915Z,1.82
2023-02-16T06:38:06.993Z,1.87
2023-02-16T06:40:34.139Z,1.89
2023-02-16T06:43:01.190Z,1.94
2023-02-16T06:45:28.286Z,1.95
2023-02-16T06:47:55.334Z,2.00
2023-02-16T06:50:22.576Z,2.01
2023-02-16T06:52:49.661Z,2.00
2023-02-16T06:55:16.866Z,2.00
2023-02-16T06:57:44.204Z,1.93
2023-02-16T07:00:11.824Z,1.89
2023-02-16T07:02:39.506Z,1.90
2023-02-16T07:05:06.695Z,1.93
2023-02-16T07:07:33.870Z,1.93
2023-02-16T07:10:02.814Z,1.93
2023-02-16T07:12:29.887Z,1.90
2023-02-16T07:14:57.071Z,1.83
2023-02-16T07:17:24.129Z,1.79
2023-02-16T07:19:51.279Z,1.77
2023-02-16T07:22:18.346Z,1.79
2023-02-16T07:24:45.460Z,1.81
2023-02-16T07:27:12.587Z,1.86
2023-02-16T07:29:40.043Z,1.85
2023-02-16T07:32:07.230Z,1.81
2023-02-16T07:34:34.532Z,1.80
2023-02-16T07:37:01.647Z,1.81
2023-02-16T07:39:30.153Z,1.80
2023-02-16T07:41:57.380Z,1.75
2023-02-16T07:44:26.450Z,1.72
2023-02-16T07:46:53.681Z,1.71
2023-02-16T07:49:20.929Z,1.66
2023-02-16T07:51:48.004Z,1.65
2023-02-16T07:54:15.127Z,1.66
2023-02-16T07:56:42.304Z,1.64
2023-02-16T07:59:09.413Z,1.64
2023-02-16T08:01:38.146Z,1.70
2023-02-16T08:04:06.700Z,1.71
2023-02-16T08:06:36.923Z,1.71
2023-02-16T08:09:04.716Z,1.72
2023-02-16T08:11:32.432Z,1.74
2023-02-16T08:14:00.424Z,1.72
2023-02-16T08:16:29.114Z,1.70
2023-02-16T08:18:58.182Z,1.74
2023-02-16T08:21:28.355Z,1.73
2023-02-16T08:24:01.822Z,1.69
2023-02-16T08:26:33.486Z,1.67
2023-02-16T08:29:02.016Z,1.64
2023-02-16T08:31:30.865Z,1.61
2023-02-16T08:34:00.470Z,1.59
2023-02-16T08:36:32.552Z,1.63
2023-02-16T08:39:01.221Z,1.67
2023-02-16T08:41:33.798Z,1.69
2023-02-16T08:44:01.211Z,1.71
2023-02-16T08:46:30.316Z,1.72
2023-02-16T08:49:00.084Z,1.77
2023-02-16T08:51:30.570Z,1.84
2023-02-16T08:54:00.293Z,1.87
2023-02-16T08:56:29.859Z,1.85
2023-02-16T08:58:57.518Z,1.80
2023-02-16T09:01:24.580Z,1.77
2023-02-16T09:03:52.535Z,1.80
2023-02-16T09:06:21.594Z,1.82
2023-02-16T09:08:54.008Z,1.84
2023-02-16T09:11:22.843Z,1.88
2023-02-16T09:13:51.075Z,1.90
2023-02-16T09:16:21.294Z,1.93
2023-02-16T09:18:49.477Z,1.93
2023-02-16T09:21:23.043Z,1.94
2023-02-16T09:23:50.675Z,1.95
2023-02-16T09:26:19.980Z,1.96
2023-02-16T09:28:48.806Z,2.01
2023-02-16T09:31:37.355Z,2.07
2023-02-16T09:34:08.058Z,2.13
2023-02-16T09:36:35.341Z,2.16
2023-02-16T09:39:02.487Z,2.19
2023-02-16T09:41:35.650Z,2.22
2023-02-16T09:44:38.138Z,2.29
2023-02-16T09:47:15.906Z,2.33
2023-02-16T09:49:47.084Z,2.30
2023-02-16T09:52:19.712Z,2.30
2023-02-16T09:54:54.429Z,2.28
2023-02-16T09:57:47.110Z,2.29
2023-02-16T10:00:52.113Z,2.36
2023-02-16T10:03:45.691Z,2.41
2023-02-16T10:06:24.915Z,2.39
2023-02-16T10:08:55.715Z,2.38
2023-02-16T10:11:48.953Z,2.43
2023-02-16T10:14:24.685Z,2.47
2023-02-16T10:16:59.279Z,2.45
2023-02-16T10:19:34.039Z,2.45
2023-02-16T10:22:05.740Z,2.48
2023-02-16T10:24:42.899Z,2.53
2023-02-16T10:27:15.578Z,2.58
2023-02-16T10:29:42.882Z,2.64
2023-02-16T10:32:19.046Z,2.67
2023-02-16T10:34:52.016Z,2.69
2023-02-16T10:37:25.309Z,2.69
2023-02-16T10:40:23.157Z,2.70
2023-02-16T10:42:59.441Z,2.71
2023-02-16T10:45:56.483Z,2.76
2023-02-16T10:48:24.253Z,2.79
2023-02-16T10:50:58.838Z,2.82
2023-02-16T10:53:32.264Z,2.85
2023-02-16T10:55:59.952Z,2.88
2023-02-16T10:58:39.354Z,2.91
2023-02-16T11:01:18.885Z,2.94
2023-02-16T11:03:50.587Z,2.98
2023-02-16T11:06:21.960Z,3.03
2023-02-16T11:08:50.311Z,3.10
2023-02-16T11:11:19.153Z,3.18
2023-02-16T11:13:50.306Z,3.26
2023-02-16T11:16:23.151Z,3.35
2023-02-16T11:19:21.386Z,3.41
2023-02-16T11:21:56.608Z,3.48
2023-02-16T11:24:31.533Z,3.56
2023-02-16T11:27:14.666Z,3.69
2023-02-16T11:29:41.993Z,3.79
2023-02-16T11:32:13.994Z,3.85
2023-02-16T11:34:47.824Z,3.91
2023-02-16T11:37:31.131Z,3.97
2023-02-16T11:40:03.258Z,4.02
2023-02-16T11:42:40.734Z,4.07
2023-02-16T11:45:09.137Z,4.14
2023-02-16T11:47:40.045Z,4.21
2023-02-16T11:50:30.065Z,4.28
2023-02-16T11:53:12.563Z,4.36
2023-02-16T11:55:50.282Z,4.47
2023-02-16T11:58:27.930Z,4.55
2023-02-16T12:01:10.160Z,4.65
2023-02-16T12:03:50.057Z,4.77
2023-02-16T12:06:23.182Z,4.89
2023-02-16T12:08:59.412Z,5.03
2023-02-16T12:11:41.670Z,5.16
2023-02-16T12:14:29.350Z,5.25
2023-02-16T12:17:30.681Z,5.35
2023-02-16T12:20:13.186Z,5.43
2023-02-16T12:22:49.389Z,5.50
2023-02-16T12:25:37.987Z,5.58
2023-02-16T12:28:17.108Z,5.67
2023-02-16T12:31:02.802Z,5.74
2023-02-16T12:33:57.983Z,5.80
2023-02-16T12:36:36.618Z,5.83
2023-02-16T12:39:17.965Z,5.83
2023-02-16T12:42:00.988Z,5.83
2023-02-16T12:44:46.401Z,5.84
2023-02-16T12:47:20.925Z,5.89
2023-02-16T12:50:22.561Z,5.94
2023-02-16T12:53:10.856Z,6.00
2023-02-16T12:55:43.839Z,6.07
2023-02-16T12:58:14.990Z,6.14
2023-02-16T13:00:51.178Z,6.22
2023-02-16T13:03:25.824Z,6.26
2023-02-16T13:06:31.612Z,6.31
2023-02-16T13:09:17.054Z,6.34
2023-02-16T13:11:50.192Z,6.34
2023-02-16T13:14:21.200Z,6.30
2023-02-16T13:16:56.672Z,6.25
2023-02-16T13:19:24.056Z,6.22
2023-02-16T13:22:12.889Z,6.22
2023-02-16T13:25:08.025Z,6.22
2023-02-16T13:27:53.936Z,6.20
2023-02-16T13:30:34.063Z,6.19
2023-02-16T13:33:37.840Z,6.18
2023-02-16T13:36:27.529Z,6.18
2023-02-16T13:39:12.822Z,6.22
2023-02-16T13:41:58.362Z,6.32
2023-02-16T13:44:38.157Z,6.37
2023-02-16T13:47:12.301Z,6.43
2023-02-16T13:49:46.487Z,6.47
2023-02-16T13:52:38.802Z,6.51
2023-02-16T13:55:21.903Z,6.56
2023-02-16T13:57:51.190Z,6.59
2023-02-16T14:00:33.694Z,6.62
2023-02-16T14:03:04.198Z,6.66
2023-02-16T14:05:38.133Z,6.67
2023-02-16T14:08:19.697Z,6.69
2023-02-16T14:10:56.178Z,6.71
2023-02-16T14:13:33.084Z,6.72
2023-02-16T14:16:29.276Z,6.72
2023-02-16T14:19:00.034Z,6.69
2023-02-16T14:21:27.260Z,6.65
2023-02-16T14:23:57.169Z,6.62
2023-02-16T14:26:25.488Z,6.60
2023-02-16T14:29:08.216Z,6.55
2023-02-16T14:31:45.516Z,6.49
2023-02-16T14:34:18.579Z,6.44
2023-02-16T14:37:28.025Z,6.42
2023-02-16T14:40:08.299Z,6.40
2023-02-16T14:42:36.817Z,6.36
2023-02-16T14:45:19.698Z,6.33
2023-02-16T14:47:55.406Z,6.29
2023-02-16T14:50:45.984Z,6.26
2023-02-16T14:53:48.554Z,6.24
2023-02-16T14:56:39.592Z,6.23
2023-02-16T14:59:06.779Z,6.22
2023-02-16T15:01:42.886Z,6.19
2023-02-16T15:04:12.114Z,6.15
2023-02-16T15:06:42.943Z,6.11
2023-02-16T15:09:24.094Z,6.08
2023-02-16T15:12:16.791Z,6.05
2023-02-16T15:14:52.062Z,6.03
2023-02-16T15:17:45.016Z,6.00
2023-02-16T15:20:30.058Z,5.98
2023-02-16T15:23:03.788Z,5.96
2023-02-16T15:25:38.567Z,5.93
2023-02-16T15:28:22.079Z,5.89
2023-02-16T15:31:03.664Z,5.86
2023-02-16T15:33:39.702Z,5.83
2023-02-16T15:36:12.091Z,5.81
2023-02-16T15:38:51.399Z,5.78
2023-02-16T15:41:30.206Z,5.77
2023-02-16T15:43:58.981Z,5.73
2023-02-16T15:46:34.591Z,5.72
2023-02-16T15:49:21.970Z,5.71
2023-02-16T15:51:49.673Z,5.68
2023-02-16T15:54:32.244Z,5.65
2023-02-16T15:57:02.529Z,5.61
2023-02-16T15:59:43.492Z,5.56
2023-02-16T16:02:13.519Z,5.51
2023-02-16T16:04:42.491Z,5.47
2023-02-16T16:07:14.341Z,5.44
2023-02-16T16:09:42.645Z,5.40
2023-02-16T16:12:13.654Z,5.35
2023-02-16T16:14:49.065Z,5.30
2023-02-16T16:17:21.117Z,5.25
2023-02-16T16:19:48.909Z,5.21
2023-02-16T16:22:36.662Z,5.17
2023-02-16T16:25:35.657Z,5.12
2023-02-16T16:28:05.656Z,5.07
2023-02-16T16:30:36.806Z,5.06
2023-02-16T16:33:09.276Z,5.05
2023-02-16T16:35:40.149Z,5.04
2023-02-16T16:38:33.433Z,5.03
2023-02-16T16:41:04.265Z,5.02
2023-02-16T16:43:33.912Z,5.00
2023-02-16T16:46:23.531Z,4.97
2023-02-16T16:48:53.909Z,4.91
2023-02-16T16:51:41.028Z,4.89
2023-02-16T16:54:30.061Z,4.84
2023-02-16T16:56:57.543Z,4.79
2023-02-16T16:59:24.618Z,4.74
2023-02-16T17:01:53.017Z,4.69
2023-02-16T17:04:22.154Z,4.67
2023-02-16T17:06:49.397Z,4.66
2023-02-16T17:09:16.960Z,4.63
2023-02-16T17:11:44.244Z,4.61
2023-02-16T17:14:17.482Z,4.56
2023-02-16T17:16:47.023Z,4.52
2023-02-16T17:19:16.209Z,4.50
2023-02-16T17:21:43.741Z,4.50
2023-02-16T17:24:10.997Z,4.50
2023-02-16T17:26:38.221Z,4.50
2023-02-16T17:29:06.499Z,4.49
2023-02-16T17:31:34.187Z,4.48
2023-02-16T17:34:01.670Z,4.49
2023-02-16T17:36:29.105Z,4.50
2023-02-16T17:38:56.329Z,4.50
2023-02-16T17:41:24.533Z,4.48
2023-02-16T17:43:52.318Z,4.47
2023-02-16T17:46:21.676Z,4.44
2023-02-16T17:48:55.206Z,4.40
2023-02-16T17:51:24.817Z,4.36
2023-02-16T17:53:52.058Z,4.32
2023-02-16T17:56:22.754Z,4.32
2023-02-16T17:58:50.820Z,4.29
2023-02-16T18:01:19.515Z,4.27
2023-02-16T18:03:46.861Z,4.27
2023-02-16T18:06:16.055Z,4.27
2023-02-16T18:08:44.361Z,4.27
2023-02-16T18:11:12.409Z,4.29
2023-02-16T18:13:39.597Z,4.30
2023-02-16T18:16:08.050Z,4.30
2023-02-16T18:18:39.616Z,4.27
2023-02-16T18:21:07.334Z,4.27
2023-02-16T18:23:34.540Z,4.28
2023-02-16T18:26:01.613Z,4.25
2023-02-16T18:28:30.933Z,4.23
2023-02-16T18:30:58.586Z,4.21
2023-02-16T18:33:26.756Z,4.18
2023-02-16T18:35:57.492Z,4.15
2023-02-16T18:38:24.833Z,4.16
2023-02-16T18:40:54.091Z,4.16
2023-02-16T18:43:21.988Z,4.15
2023-02-16T18:45:49.829Z,4.13
2023-02-16T18:48:17.255Z,4.11
2023-02-16T18:50:44.869Z,4.11
2023-02-16T18:53:12.098Z,4.07
2023-02-16T18:55:39.322Z,4.04
2023-02-16T18:58:08.252Z,4.01
2023-02-16T19:00:36.421Z,3.99
2023-02-16T19:03:04.402Z,3.99
2023-02-16T19:05:32.382Z,4.00
2023-02-16T19:07:59.760Z,4.04
2023-02-16T19:10:27.144Z,4.06
2023-02-16T19:12:54.376Z,4.07
2023-02-16T19:15:21.674Z,4.06
2023-02-16T19:17:48.865Z,4.07
2023-02-16T19:20:18.666Z,4.05
2023-02-16T19:22:47.096Z,4.03
2023-02-16T19:25:14.843Z,4.02
2023-02-16T19:27:42.725Z,4.02
2023-02-16T19:30:10.801Z,4.03
2023-02-16T19:32:41.050Z,4.04
2023-02-16T19:35:09.961Z,4.02
2023-02-16T19:37:37.517Z,4.02
2023-02-16T19:40:06.853Z,4.02
2023-02-16T19:42:33.895Z,4.02
2023-02-16T19:45:01.093Z,4.00
2023-02-16T19:47:28.270Z,4.00
2023-02-16T19:49:55.344Z,4.01
2023-02-16T19:52:22.675Z,4.02
2023-02-16T19:54:49.950Z,4.04
2023-02-16T19:57:17.029Z,4.06
2023-02-16T19:59:44.024Z,4.08
2023-02-16T20:02:15.636Z,4.09
2023-02-16T20:04:44.731Z,4.08
2023-02-16T20:07:11.874Z,4.06
2023-02-16T20:09:39.255Z,4.03
2023-02-16T20:12:06.655Z,4.00
2023-02-16T20:14:33.952Z,3.99
2023-02-16T20:17:01.067Z,4.00
2023-02-16T20:19:28.087Z,4.03
2023-02-16T20:21:55.274Z,4.04
2023-02-16T20:24:22.445Z,4.04
2023-02-16T20:26:52.068Z,4.04
2023-02-16T20:29:21.000Z,4.04
2023-02-16T20:31:52.814Z,4.01
2023-02-16T20:34:20.569Z,4.01
2023-02-16T20:36:47.915Z,4.03
2023-02-16T20:39:15.669Z,4.03
2023-02-16T20:41:43.608Z,4.04
2023-02-16T20:44:11.711Z,4.03
2023-02-16T20:46:40.049Z,4.00
2023-02-16T20:49:08.308Z,3.98
2023-02-16T20:51:36.232Z,3.99
2023-02-16T20:54:03.867Z,3.99
2023-02-16T20:56:31.037Z,3.99
2023-02-16T20:58:58.172Z,4.01
2023-02-16T21:01:32.573Z,4.01
2023-02-16T21:04:00.536Z,3.99
2023-02-16T21:06:28.502Z,3.98
2023-02-16T21:08:56.137Z,3.97
2023-02-16T21:11:24.127Z,3.97
2023-02-16T21:13:51.899Z,3.99
2023-02-16T21:16:19.181Z,3.99
2023-02-16T21:18:46.459Z,4.00
2023-02-16T21:21:15.931Z,4.02
2023-02-16T21:23:49.213Z,4.04
2023-02-16T21:26:17.642Z,4.04
2023-02-16T21:28:44.733Z,4.04
2023-02-16T21:31:15.014Z,4.04
2023-02-16T21:33:42.592Z,4.05
2023-02-16T21:36:12.175Z,4.07
2023-02-16T21:38:40.525Z,4.08
2023-02-16T21:41:24.728Z,4.11
2023-02-16T21:44:03.062Z,4.15
2023-02-16T21:46:33.420Z,4.16
2023-02-16T21:49:00.977Z,4.19
2023-02-16T21:51:34.450Z,4.19
2023-02-16T21:54:02.242Z,4.19
2023-02-16T21:56:29.520Z,4.19
2023-02-16T21:58:57.386Z,4.21
2023-02-16T22:01:28.504Z,4.26
2023-02-16T22:03:58.762Z,4.31
2023-02-16T22:06:28.618Z,4.36
2023-02-16T22:08:55.923Z,4.42
2023-02-16T22:11:23.075Z,4.45
2023-02-16T22:13:55.139Z,4.46
2023-02-16T22:16:23.107Z,4.46
2023-02-16T22:18:50.343Z,4.45
2023-02-16T22:21:17.468Z,4.49
2023-02-16T22:23:44.585Z,4.52
2023-02-16T22:26:20.671Z,4.55
2023-02-16T22:28:47.747Z,4.61
2023-02-16T22:31:15.190Z,4.65
2023-02-16T22:33:42.384Z,4.67
2023-02-16T22:36:13.961Z,4.68
2023-02-16T22:38:42.044Z,4.68
2023-02-16T22:41:11.093Z,4.67
2023-02-16T22:43:39.191Z,4.66
2023-02-16T22:46:08.768Z,4.63
2023-02-16T22:48:36.510Z,4.61
2023-02-16T22:51:08.796Z,4.61
2023-02-16T22:53:35.953Z,4.62
2023-02-16T22:56:06.512Z,4.64
2023-02-16T22:58:34.039Z,4.65
2023-02-16T23:01:01.149Z,4.66
2023-02-16T23:03:28.993Z,4.66
2023-02-16T23:05:56.127Z,4.65
2023-02-16T23:08:23.350Z,4.62
2023-02-16T23:11:00.166Z,4.61
2023-02-16T23:13:29.150Z,4.60
2023-02-16T23:15:57.275Z,4.60
2023-02-16T23:18:25.173Z,4.60
2023-02-16T23:20:52.225Z,4.60
2023-02-16T23:23:19.290Z,4.57
2023-02-16T23:25:49.667Z,4.55
2023-02-16T23:28:16.867Z,4.52
2023-02-16T23:30:46.646Z,4.51
2023-02-16T23:33:14.424Z,4.54
2023-02-16T23:35:42.006Z,4.59
2023-02-16T23:38:14.502Z,4.61
2023-02-16T23:40:42.732Z,4.62
2023-02-16T23:43:10.765Z,4.62
2023-02-16T23:45:38.777Z,4.62
2023-02-16T23:48:06.180Z,4.61
2023-02-16T23:50:33.379Z,4.62
2023-02-16T23:53:00.589Z,4.64
2023-02-16T23:55:27.734Z,4.64
2023-02-16T23:57:54.832Z,4.63
